Time;durP1;ratioP1;P1;durP2;ratioP2;P2;SDS_P1;SDS_P2;PMS_P1;PMS_P2;Temp;Humidity;BMP_temperature;BMP_pressure;BME280_temperature;BME280_humidity;BME280_pressure;Samples;Min_cycle;Max_cycle;Signal;HPM_P1;HPM_P2
2021/05/14 00:02:05;;;;;;;18.83;12.45;;;8.80;97.10;;;;;;4989510;28;20045;-76
2021/05/14 00:04:31;;;;;;;23.50;14.63;;;8.80;97.10;;;;;;4991828;28;20024;-76
2021/05/14 00:06:56;;;;;;;22.95;14.30;;;8.80;97.10;;;;;;5003605;28;20405;-76
2021/05/14 00:09:23;;;;;;;22.45;14.60;;;8.80;97.20;;;;;;5003105;28;20041;-76
2021/05/14 00:11:48;;;;;;;21.05;14.23;;;8.80;97.20;;;;;;4995746;28;20045;-76
2021/05/14 00:14:15;;;;;;;24.92;14.82;;;8.80;97.20;;;;;;4999703;28;20052;-76
2021/05/14 00:16:41;;;;;;;24.25;15.55;;;8.80;97.20;;;;;;4995620;28;20061;-75
2021/05/14 00:19:07;;;;;;;24.17;14.80;;;8.80;97.20;;;;;;4994282;28;20034;-75
2021/05/14 00:21:33;;;;;;;27.10;16.17;;;8.90;97.40;;;;;;5002236;28;20482;-76
2021/05/14 00:23:59;;;;;;;33.45;17.02;;;8.90;97.40;;;;;;4997014;28;20473;-75
2021/05/14 00:26:25;;;;;;;28.88;17.23;;;8.90;97.30;;;;;;4988545;28;20272;-76
2021/05/14 00:28:51;;;;;;;35.72;18.10;;;9.00;97.40;;;;;;4989605;28;20065;-74
2021/05/14 00:31:17;;;;;;;29.67;18.02;;;9.00;97.40;;;;;;4991470;28;20026;-76
2021/05/14 00:33:43;;;;;;;31.92;17.58;;;9.00;97.40;;;;;;4995267;28;20053;-75
2021/05/14 00:36:09;;;;;;;29.73;17.33;;;9.00;97.40;;;;;;4991581;28;20022;-76
2021/05/14 00:38:36;;;;;;;29.92;17.00;;;8.90;97.30;;;;;;4996633;28;20475;-76
2021/05/14 00:41:03;;;;;;;28.25;17.58;;;8.90;97.30;;;;;;4989401;28;20052;-75
2021/05/14 00:43:28;;;;;;;29.05;18.75;;;8.80;97.10;;;;;;4996764;28;20026;-75
2021/05/14 00:45:54;;;;;;;30.08;17.50;;;8.80;97.30;;;;;;4994380;28;20022;-75
2021/05/14 00:48:20;;;;;;;32.28;19.15;;;8.80;97.20;;;;;;4997196;28;20030;-75
2021/05/14 00:50:46;;;;;;;35.45;19.27;;;8.80;97.30;;;;;;4988639;28;20046;-75
2021/05/14 00:53:12;;;;;;;33.33;18.40;;;8.80;97.30;;;;;;4995297;28;20021;-75
2021/05/14 00:55:38;;;;;;;32.13;18.50;;;8.80;97.20;;;;;;4994567;28;20030;-75
2021/05/14 00:58:03;;;;;;;29.60;17.90;;;8.70;97.20;;;;;;4993741;28;20052;-75
2021/05/14 01:00:30;;;;;;;31.55;17.77;;;8.70;97.20;;;;;;5005625;28;20646;-76
2021/05/14 01:02:56;;;;;;;35.25;19.40;;;8.70;97.20;;;;;;4986908;28;20045;-75
2021/05/14 01:05:22;;;;;;;34.10;19.67;;;8.70;97.20;;;;;;4988519;28;20164;-76
2021/05/14 01:07:50;;;;;;;33.92;19.38;;;8.60;97.10;;;;;;4998285;28;20030;-75
2021/05/14 01:10:17;;;;;;;37.35;19.17;;;8.70;97.30;;;;;;5000290;28;20022;-75
2021/05/14 01:12:42;;;;;;;38.63;19.58;;;8.70;97.20;;;;;;4985036;28;20052;-75
2021/05/14 01:15:09;;;;;;;43.92;20.48;;;8.70;97.20;;;;;;4990350;28;20195;-76
2021/05/14 01:17:34;;;;;;;47.67;21.40;;;8.70;97.30;;;;;;5017222;28;20021;-75
2021/05/14 01:20:01;;;;;;;44.53;20.88;;;8.70;97.30;;;;;;4995364;28;20038;-75
2021/05/14 01:22:28;;;;;;;39.03;21.08;;;8.70;97.40;;;;;;4990727;28;20765;-75
2021/05/14 01:24:54;;;;;;;38.38;18.52;;;8.70;97.40;;;;;;5010703;28;20088;-75
2021/05/14 01:27:20;;;;;;;41.42;19.98;;;8.70;97.40;;;;;;5003053;28;20026;-75
2021/05/14 01:29:45;;;;;;;40.40;21.13;;;8.70;97.40;;;;;;5015293;28;20405;-75
2021/05/14 01:32:12;;;;;;;42.72;20.17;;;8.60;97.30;;;;;;4998797;28;20044;-75
2021/05/14 01:34:38;;;;;;;42.00;20.50;;;8.60;97.30;;;;;;4997855;28;20034;-75
2021/05/14 01:37:03;;;;;;;43.28;20.23;;;8.60;97.40;;;;;;4991276;28;20104;-75
2021/05/14 01:39:29;;;;;;;46.58;21.58;;;8.60;97.40;;;;;;5000322;28;20369;-75
2021/05/14 01:41:55;;;;;;;48.88;19.98;;;8.60;97.50;;;;;;4997438;28;20134;-75
2021/05/14 01:44:22;;;;;;;43.28;21.20;;;8.50;97.50;;;;;;4995952;28;20093;-76
2021/05/14 01:46:48;;;;;;;51.58;20.80;;;8.60;97.60;;;;;;4994960;28;20034;-76
2021/05/14 01:49:14;;;;;;;44.35;20.80;;;8.60;97.70;;;;;;4998986;28;20198;-76
2021/05/14 01:51:40;;;;;;;35.97;18.30;;;8.60;97.70;;;;;;4989245;28;20553;-75
2021/05/14 01:54:06;;;;;;;31.92;17.52;;;8.60;97.50;;;;;;4994061;28;20050;-76
2021/05/14 01:56:32;;;;;;;34.67;17.48;;;8.50;97.20;;;;;;4991641;28;20030;-76
2021/05/14 01:58:57;;;;;;;28.80;16.45;;;8.50;97.20;;;;;;4995015;28;20042;-75
2021/05/14 02:01:23;;;;;;;28.77;16.73;;;8.40;97.10;;;;;;4990639;28;20490;-75
2021/05/14 02:03:49;;;;;;;38.25;17.33;;;8.40;97.10;;;;;;5001846;28;20118;-75
2021/05/14 02:06:15;;;;;;;31.38;15.93;;;8.40;97.00;;;;;;4993512;28;20022;-76
2021/05/14 02:08:40;;;;;;;30.65;16.83;;;8.40;97.00;;;;;;4995799;28;20547;-75
2021/05/14 02:11:09;;;;;;;35.95;18.92;;;8.40;97.00;;;;;;5018871;28;20053;-75
2021/05/14 02:13:41;;;;;;;38.17;19.40;;;8.40;97.10;;;;;;5006287;28;20069;-75
2021/05/14 02:16:09;;;;;;;32.80;17.95;;;8.40;97.00;;;;;;4992801;28;20061;-75
2021/05/14 02:18:36;;;;;;;34.30;19.48;;;8.40;96.90;;;;;;5012921;28;20018;-75
2021/05/14 02:21:03;;;;;;;38.40;19.85;;;8.30;96.90;;;;;;5005964;28;20453;-75
2021/05/14 02:23:28;;;;;;;35.83;19.52;;;8.30;96.90;;;;;;5000135;28;20057;-75
2021/05/14 02:25:54;;;;;;;34.85;19.38;;;8.40;97.00;;;;;;5018641;28;20058;-75
2021/05/14 02:28:20;;;;;;;33.60;20.10;;;8.40;97.10;;;;;;5009502;28;20032;-75
2021/05/14 02:30:46;;;;;;;37.15;19.90;;;8.40;97.10;;;;;;4991079;28;20030;-75
2021/05/14 02:33:12;;;;;;;40.33;19.63;;;8.30;97.00;;;;;;4994088;28;20133;-75
2021/05/14 02:35:37;;;;;;;49.15;20.30;;;8.30;97.00;;;;;;5002148;28;20389;-75
2021/05/14 02:38:05;;;;;;;37.50;21.60;;;8.40;97.10;;;;;;5010696;28;20410;-76
2021/05/14 02:40:31;;;;;;;36.60;20.02;;;8.30;97.00;;;;;;4989314;28;20164;-76
2021/05/14 02:42:57;;;;;;;38.25;21.10;;;8.40;97.00;;;;;;5003732;28;20117;-75
2021/05/14 02:45:23;;;;;;;43.28;21.48;;;8.30;97.00;;;;;;5008151;28;20113;-76
2021/05/14 02:47:49;;;;;;;46.70;21.63;;;8.30;97.10;;;;;;5005773;28;20619;-76
2021/05/14 02:50:15;;;;;;;40.70;20.88;;;8.30;97.10;;;;;;4999675;28;20038;-76
2021/05/14 02:52:41;;;;;;;35.45;20.23;;;8.30;96.90;;;;;;5001011;28;20488;-76
2021/05/14 02:55:08;;;;;;;40.03;20.88;;;8.20;96.70;;;;;;5010561;28;20255;-76
2021/05/14 02:57:34;;;;;;;36.35;19.48;;;8.20;96.80;;;;;;4999043;28;20042;-76
2021/05/14 03:00:00;;;;;;;41.10;20.33;;;8.20;96.60;;;;;;5004197;28;20113;-76
2021/05/14 03:02:25;;;;;;;47.03;20.67;;;8.20;96.70;;;;;;4998315;28;20968;-76
2021/05/14 03:04:51;;;;;;;40.67;19.63;;;8.20;96.80;;;;;;4997246;28;20418;-76
2021/05/14 03:07:17;;;;;;;39.97;17.98;;;8.20;96.70;;;;;;5000056;28;20099;-77
2021/05/14 03:09:42;;;;;;;38.47;17.52;;;8.10;96.60;;;;;;4990853;28;20505;-76
2021/05/14 03:12:08;;;;;;;30.95;16.38;;;8.10;96.70;;;;;;4994462;28;20061;-76
2021/05/14 03:14:34;;;;;;;33.70;17.70;;;8.10;96.70;;;;;;5006109;28;20312;-76
2021/05/14 03:17:00;;;;;;;35.17;17.17;;;8.10;96.60;;;;;;4987601;28;20499;-76
2021/05/14 03:19:26;;;;;;;36.63;17.83;;;8.10;96.60;;;;;;4997782;28;20026;-76
2021/05/14 03:21:52;;;;;;;41.58;17.80;;;8.10;96.70;;;;;;5000839;28;20559;-76
2021/05/14 03:24:19;;;;;;;30.27;16.83;;;8.00;96.60;;;;;;4999434;28;20496;-76
2021/05/14 03:26:47;;;;;;;42.30;18.75;;;8.00;96.50;;;;;;5000396;28;20391;-76
2021/05/14 03:29:14;;;;;;;35.33;17.52;;;8.00;96.60;;;;;;4999059;28;20057;-77
2021/05/14 03:31:39;;;;;;;34.45;18.52;;;8.00;96.70;;;;;;4991988;28;20022;-77
2021/05/14 03:34:05;;;;;;;28.92;16.27;;;7.90;96.50;;;;;;5014505;28;20029;-77
2021/05/14 03:36:31;;;;;;;32.53;16.40;;;7.90;96.60;;;;;;4996853;28;20026;-76
2021/05/14 03:38:57;;;;;;;29.95;17.35;;;7.90;96.70;;;;;;5025401;28;20034;-76
2021/05/14 03:43:55;;;;;;;33.63;17.25;;;7.90;96.80;;;;;;4998098;28;20030;-76
2021/05/14 03:46:20;;;;;;;29.45;17.25;;;8.00;96.90;;;;;;5009499;28;20092;-76
2021/05/14 03:48:46;;;;;;;31.02;14.68;;;7.90;96.90;;;;;;5008370;28;20025;-76
2021/05/14 03:51:12;;;;;;;37.88;16.52;;;7.90;96.90;;;;;;4991015;28;20034;-76
2021/05/14 03:53:37;;;;;;;27.83;15.50;;;7.90;96.90;;;;;;5003622;28;20080;-76
2021/05/14 03:56:03;;;;;;;28.20;15.25;;;7.90;96.80;;;;;;4993154;28;20030;-76
2021/05/14 03:58:29;;;;;;;31.13;14.65;;;7.90;96.80;;;;;;4997506;28;20339;-76
2021/05/14 04:00:55;;;;;;;27.40;14.32;;;7.90;96.90;;;;;;4990946;28;20264;-77
2021/05/14 04:03:21;;;;;;;26.98;14.23;;;7.80;96.80;;;;;;5007576;28;20617;-76
2021/05/14 04:05:48;;;;;;;32.65;14.52;;;7.90;96.90;;;;;;5016945;28;20030;-76
2021/05/14 04:08:14;;;;;;;32.58;14.35;;;7.80;96.80;;;;;;4988134;28;20201;-76
2021/05/14 04:16:01;;;;;;;26.08;11.63;;;7.90;96.70;;;;;;4992683;28;20488;-76
2021/05/14 04:18:27;;;;;;;32.28;12.80;;;7.90;96.80;;;;;;4989414;28;20314;-76
2021/05/14 04:20:53;;;;;;;26.20;13.82;;;7.90;96.60;;;;;;4994025;28;20038;-64
2021/05/14 04:23:19;;;;;;;34.08;13.57;;;7.90;96.60;;;;;;4987684;28;20593;-65
2021/05/14 04:25:45;;;;;;;32.40;14.20;;;7.90;96.70;;;;;;4989418;28;20161;-65
2021/05/14 04:28:10;;;;;;;32.85;13.90;;;7.90;96.70;;;;;;4990215;28;20493;-64
2021/05/14 04:30:38;;;;;;;33.13;13.70;;;7.90;96.60;;;;;;4985957;28;20019;-64
2021/05/14 04:33:05;;;;;;;25.33;14.35;;;7.90;96.50;;;;;;4985818;28;20088;-63
2021/05/14 04:35:31;;;;;;;27.55;13.93;;;7.80;96.50;;;;;;4992475;28;20030;-64
2021/05/14 04:37:57;;;;;;;26.63;13.80;;;7.80;96.60;;;;;;4991462;28;20026;-63
2021/05/14 04:40:22;;;;;;;36.05;14.13;;;7.90;96.60;;;;;;4993074;28;20478;-63
2021/05/14 04:42:48;;;;;;;32.40;13.07;;;7.90;96.70;;;;;;4991567;28;20033;-63
2021/05/14 04:45:14;;;;;;;30.67;13.68;;;7.90;96.50;;;;;;5006772;28;20022;-63
2021/05/14 04:47:39;;;;;;;29.30;13.82;;;7.90;96.60;;;;;;5005153;28;20033;-63
2021/05/14 04:50:05;;;;;;;29.35;13.63;;;7.90;96.50;;;;;;4993105;28;20482;-63
2021/05/14 04:52:32;;;;;;;31.88;13.95;;;8.00;96.50;;;;;;4987034;28;20141;-63
2021/05/14 04:54:57;;;;;;;28.63;13.30;;;7.90;96.60;;;;;;5004339;28;20548;-62
2021/05/14 04:57:23;;;;;;;27.05;13.20;;;8.00;96.50;;;;;;4995681;28;20030;-63
2021/05/14 04:59:49;;;;;;;35.20;13.80;;;7.90;96.50;;;;;;4993721;28;20486;-63
2021/05/14 05:02:15;;;;;;;31.05;12.23;;;8.00;96.60;;;;;;4998813;28;20517;-63
2021/05/14 05:04:42;;;;;;;24.85;13.07;;;8.10;96.70;;;;;;5002524;28;20033;-64
2021/05/14 05:07:07;;;;;;;23.67;12.38;;;8.00;96.50;;;;;;4986493;28;20032;-63
2021/05/14 05:09:34;;;;;;;28.65;12.27;;;8.00;96.50;;;;;;4993298;28;20382;-62
2021/05/14 05:11:59;;;;;;;24.83;13.07;;;8.00;96.40;;;;;;4992410;28;20514;-63
2021/05/14 05:14:25;;;;;;;20.95;12.43;;;7.90;96.30;;;;;;5001437;28;20144;-63
2021/05/14 05:16:51;;;;;;;26.00;13.85;;;8.00;96.50;;;;;;4993927;28;20116;-63
2021/05/14 05:19:17;;;;;;;27.30;13.23;;;8.10;96.60;;;;;;5003036;28;20047;-63
2021/05/14 05:21:43;;;;;;;35.00;14.02;;;8.10;96.50;;;;;;4990025;28;20066;-63
2021/05/14 05:24:09;;;;;;;29.02;13.02;;;8.10;96.50;;;;;;4993241;28;20091;-64
2021/05/14 05:26:35;;;;;;;28.92;14.00;;;8.10;96.60;;;;;;4996225;28;20034;-64
2021/05/14 05:29:01;;;;;;;28.98;14.15;;;8.10;96.60;;;;;;5005176;28;20485;-66
2021/05/14 05:31:26;;;;;;;25.13;12.52;;;8.10;96.60;;;;;;5000857;28;20310;-66
2021/05/14 05:33:52;;;;;;;24.38;13.55;;;8.10;96.50;;;;;;5001632;28;20034;-66
2021/05/14 05:36:18;;;;;;;28.55;14.88;;;8.10;96.50;;;;;;5003771;28;20144;-66
2021/05/14 05:38:46;;;;;;;32.20;15.27;;;8.10;96.50;;;;;;4999382;28;20277;-66
2021/05/14 05:41:11;;;;;;;26.65;14.63;;;8.10;96.40;;;;;;4991079;28;20030;-65
2021/05/14 05:43:37;;;;;;;31.30;15.13;;;8.10;96.50;;;;;;4993281;28;20397;-64
2021/05/14 05:46:03;;;;;;;28.13;15.63;;;8.00;96.40;;;;;;4992525;28;20122;-68
2021/05/14 05:48:28;;;;;;;31.80;15.25;;;8.10;96.50;;;;;;4999889;28;20040;-64
2021/05/14 05:50:54;;;;;;;31.20;15.82;;;8.10;96.30;;;;;;4993039;28;20104;-66
2021/05/14 05:53:20;;;;;;;30.65;15.38;;;8.10;96.40;;;;;;5007951;28;20033;-67
2021/05/14 05:55:47;;;;;;;27.05;14.90;;;8.10;96.40;;;;;;5007467;28;20294;-65
2021/05/14 05:58:14;;;;;;;24.17;14.25;;;8.10;96.20;;;;;;5000591;28;20036;-67
2021/05/14 06:00:40;;;;;;;36.53;14.75;;;8.10;96.20;;;;;;4999235;28;20345;-65
2021/05/14 06:03:09;;;;;;;37.40;14.45;;;8.10;96.30;;;;;;4998542;28;20058;-67
2021/05/14 06:05:35;;;;;;;30.48;15.55;;;8.10;96.40;;;;;;5005592;28;20041;-65
2021/05/14 06:08:00;;;;;;;31.20;16.65;;;8.20;96.50;;;;;;4995794;28;20022;-66
2021/05/14 06:10:26;;;;;;;38.47;17.20;;;8.20;96.60;;;;;;5002737;28;20022;-64
2021/05/14 06:12:52;;;;;;;34.13;17.70;;;8.20;96.60;;;;;;5003691;28;20568;-64
2021/05/14 06:15:18;;;;;;;37.25;17.73;;;8.20;96.60;;;;;;4999979;28;20040;-67
2021/05/14 06:17:44;;;;;;;32.83;17.25;;;8.20;96.70;;;;;;5004888;28;20109;-66
2021/05/14 06:20:17;;;;;;;32.45;16.88;;;8.30;96.70;;;;;;5008206;28;20034;-66
2021/05/14 06:22:43;;;;;;;44.67;17.63;;;8.20;96.50;;;;;;4994598;28;20209;-65
2021/05/14 06:25:09;;;;;;;37.10;17.63;;;8.20;96.60;;;;;;5018977;28;20303;-63
2021/05/14 06:27:35;;;;;;;30.27;17.90;;;8.20;96.50;;;;;;4993321;28;20666;-64
2021/05/14 06:30:02;;;;;;;36.53;15.95;;;8.20;96.50;;;;;;5006811;28;20033;-65
2021/05/14 06:32:27;;;;;;;28.10;15.98;;;8.20;96.40;;;;;;4989406;28;20042;-67
2021/05/14 06:34:54;;;;;;;34.05;16.30;;;8.10;96.30;;;;;;5015961;28;20429;-64
2021/05/14 06:37:20;;;;;;;30.13;16.80;;;8.20;96.40;;;;;;4997677;28;20033;-66
2021/05/14 06:39:46;;;;;;;31.63;15.73;;;8.20;96.50;;;;;;5001935;28;20413;-65
2021/05/14 06:42:11;;;;;;;29.63;15.73;;;8.20;96.40;;;;;;5006212;28;20041;-67
2021/05/14 06:44:37;;;;;;;34.65;15.98;;;8.20;96.50;;;;;;4999539;28;20026;-70
2021/05/14 06:47:03;;;;;;;28.23;16.45;;;8.10;96.50;;;;;;4998859;28;20033;-65
2021/05/14 06:49:30;;;;;;;36.95;17.33;;;8.10;96.60;;;;;;4998577;28;20048;-65
2021/05/14 06:51:56;;;;;;;34.90;18.40;;;8.10;96.70;;;;;;5002283;28;20719;-63
2021/05/14 06:54:21;;;;;;;28.98;16.25;;;8.10;96.60;;;;;;5009532;28;20040;-63
2021/05/14 06:56:47;;;;;;;46.92;19.08;;;8.10;96.70;;;;;;5004743;28;20540;-65
2021/05/14 06:59:12;;;;;;;29.17;15.93;;;8.10;96.70;;;;;;4991881;28;20116;-64
2021/05/14 07:01:38;;;;;;;37.20;17.58;;;8.10;96.40;;;;;;4994817;28;20068;-64
2021/05/14 07:04:04;;;;;;;35.22;17.92;;;8.10;96.70;;;;;;5009597;28;20025;-63
2021/05/14 07:06:30;;;;;;;34.13;15.50;;;8.10;96.70;;;;;;5027414;28;20032;-63
2021/05/14 07:08:55;;;;;;;26.77;17.27;;;8.10;96.60;;;;;;4997480;28;20037;-63
2021/05/14 07:11:21;;;;;;;29.73;17.17;;;8.10;96.60;;;;;;5003255;28;20104;-63
2021/05/14 07:13:47;;;;;;;33.13;17.95;;;8.10;96.60;;;;;;5007531;28;20075;-63
2021/05/14 07:16:13;;;;;;;35.80;17.63;;;8.10;96.60;;;;;;5000803;28;20030;-62
2021/05/14 07:18:39;;;;;;;29.73;15.63;;;8.10;96.70;;;;;;4991537;28;20454;-62
2021/05/14 07:21:04;;;;;;;30.13;16.33;;;8.10;96.70;;;;;;4989059;28;22473;-62
2021/05/14 07:23:31;;;;;;;30.50;16.02;;;8.20;96.80;;;;;;4994878;28;20031;-62
2021/05/14 07:25:57;;;;;;;28.55;14.95;;;8.10;96.60;;;;;;4996707;28;20021;-61
2021/05/14 07:28:22;;;;;;;23.95;14.25;;;8.10;96.60;;;;;;4995887;28;20594;-63
2021/05/14 07:30:48;;;;;;;24.40;14.68;;;8.10;96.60;;;;;;4999411;28;20484;-63
2021/05/14 07:33:14;;;;;;;30.70;15.13;;;8.00;96.60;;;;;;4997664;28;20042;-63
2021/05/14 07:35:39;;;;;;;26.10;15.52;;;8.10;96.80;;;;;;5005504;28;20037;-63
2021/05/14 07:38:05;;;;;;;25.27;14.65;;;8.10;96.60;;;;;;4996731;28;20349;-63
2021/05/14 07:40:31;;;;;;;26.20;14.70;;;8.10;96.70;;;;;;5003379;28;20033;-62
2021/05/14 07:42:57;;;;;;;19.67;13.30;;;8.20;96.70;;;;;;4998334;28;20033;-62
2021/05/14 07:45:23;;;;;;;25.30;14.85;;;8.20;96.60;;;;;;5007517;28;20163;-62
2021/05/14 07:47:49;;;;;;;26.40;13.57;;;8.20;96.40;;;;;;4993248;28;20022;-62
2021/05/14 07:50:14;;;;;;;19.50;12.95;;;8.20;96.40;;;;;;5009554;28;20479;-63
2021/05/14 07:52:40;;;;;;;27.95;14.25;;;8.20;96.30;;;;;;5000010;28;20441;-63
2021/05/14 07:55:06;;;;;;;27.35;14.07;;;8.10;96.20;;;;;;4997341;28;20485;-63
2021/05/14 07:57:32;;;;;;;28.42;14.27;;;8.20;96.40;;;;;;5000523;28;20651;-63
2021/05/14 07:59:58;;;;;;;23.88;13.27;;;8.10;96.30;;;;;;4999639;28;20116;-66
2021/05/14 08:02:24;;;;;;;22.48;14.23;;;8.10;96.30;;;;;;4998256;28;20264;-63
2021/05/14 08:04:50;;;;;;;21.48;13.68;;;8.10;96.10;;;;;;4996470;28;20022;-62
2021/05/14 08:07:15;;;;;;;22.83;14.00;;;8.10;96.20;;;;;;4999526;28;20617;-62
2021/05/14 08:09:43;;;;;;;24.65;13.38;;;8.20;96.20;;;;;;4996622;28;20630;-63
2021/05/14 08:12:10;;;;;;;25.17;15.02;;;8.10;96.10;;;;;;5001752;28;20490;-62
2021/05/14 08:14:36;;;;;;;26.25;14.93;;;8.20;96.20;;;;;;5003817;28;20045;-63
2021/05/14 08:17:02;;;;;;;26.75;13.65;;;8.20;96.30;;;;;;4992545;28;20022;-63
2021/05/14 08:19:27;;;;;;;19.55;13.68;;;8.10;95.80;;;;;;5004264;28;20076;-63
2021/05/14 08:21:53;;;;;;;24.02;14.32;;;8.20;96.10;;;;;;5005297;28;20022;-62
2021/05/14 08:24:19;;;;;;;22.20;13.82;;;8.20;96.20;;;;;;4994679;28;20421;-62
2021/05/14 08:26:45;;;;;;;23.08;13.30;;;8.20;96.10;;;;;;5004349;28;20040;-62
2021/05/14 08:29:11;;;;;;;23.23;13.48;;;8.30;96.00;;;;;;5003380;28;20093;-63
2021/05/14 08:31:40;;;;;;;27.63;14.77;;;8.30;96.20;;;;;;4993719;28;20018;-63
2021/05/14 08:34:11;;;;;;;27.35;14.95;;;8.40;96.40;;;;;;5003301;28;20017;-63
2021/05/14 08:36:39;;;;;;;27.58;14.93;;;8.40;96.30;;;;;;5000178;28;20493;-62
2021/05/14 08:39:06;;;;;;;22.60;14.65;;;8.50;96.50;;;;;;5003721;28;20053;-63
2021/05/14 08:41:34;;;;;;;23.13;13.85;;;8.50;96.50;;;;;;4998440;28;20032;-63
2021/05/14 08:44:00;;;;;;;25.95;13.48;;;8.50;96.40;;;;;;4999444;28;20037;-62
2021/05/14 08:46:26;;;;;;;21.77;12.73;;;8.40;95.80;;;;;;5003366;28;20068;-63
2021/05/14 08:48:53;;;;;;;26.65;13.27;;;8.50;95.80;;;;;;4996646;28;20049;-62
2021/05/14 08:51:24;;;;;;;23.35;12.23;;;8.60;95.90;;;;;;4996904;28;20098;-62
2021/05/14 08:53:51;;;;;;;20.55;12.45;;;8.50;95.40;;;;;;4991141;28;20038;-61
2021/05/14 08:56:16;;;;;;;25.77;12.55;;;8.70;95.70;;;;;;5006021;28;20096;-63
2021/05/14 08:58:42;;;;;;;25.30;12.23;;;8.70;95.50;;;;;;4994436;28;20040;-63
2021/05/14 09:01:08;;;;;;;28.48;13.90;;;8.70;95.70;;;;;;4999399;28;20018;-63
2021/05/14 09:03:55;;;;;;;21.85;12.35;;;8.80;95.70;;;;;;4997843;28;20033;-62
2021/05/14 09:06:47;;;;;;;24.65;14.10;;;8.70;95.60;;;;;;5015031;28;20425;-62
2021/05/14 09:09:14;;;;;;;21.33;13.43;;;8.80;95.80;;;;;;4994663;28;20334;-62
2021/05/14 09:11:48;;;;;;;19.02;12.15;;;8.70;95.60;;;;;;4991093;28;20492;-63
2021/05/14 09:14:29;;;;;;;20.65;13.55;;;8.70;95.30;;;;;;4988370;28;20030;-63
2021/05/14 09:16:55;;;;;;;26.27;13.10;;;8.70;95.70;;;;;;4999545;28;20097;-63
2021/05/14 09:19:31;;;;;;;24.80;13.07;;;8.70;95.60;;;;;;4997420;28;20034;-63
2021/05/14 09:22:14;;;;;;;21.67;13.77;;;8.80;95.70;;;;;;4989652;28;20038;-61
2021/05/14 09:24:42;;;;;;;22.05;12.85;;;8.70;95.30;;;;;;5000374;28;20022;-63
2021/05/14 09:27:26;;;;;;;25.17;13.40;;;8.60;95.30;;;;;;4992402;28;20050;-63
2021/05/14 09:29:52;;;;;;;23.02;13.60;;;8.60;95.30;;;;;;5000685;28;20065;-63
2021/05/14 09:32:29;;;;;;;27.38;12.23;;;8.50;95.30;;;;;;4993920;28;20561;-62
2021/05/14 09:35:00;;;;;;;24.52;12.45;;;8.50;94.70;;;;;;5002426;28;20080;-63
2021/05/14 09:37:27;;;;;;;21.20;12.32;;;8.60;94.50;;;;;;5005285;28;20222;-63
2021/05/14 09:40:13;;;;;;;26.42;14.00;;;8.60;95.00;;;;;;4999759;28;20034;-63
2021/05/14 09:42:38;;;;;;;28.92;13.85;;;8.60;95.30;;;;;;4996769;28;20445;-63
2021/05/14 09:45:19;;;;;;;31.65;14.07;;;8.60;95.50;;;;;;5021512;28;20033;-63
2021/05/14 09:48:03;;;;;;;25.92;13.23;;;8.60;95.50;;;;;;5005399;28;20025;-63
2021/05/14 09:50:34;;;;;;;25.00;11.98;;;8.70;95.30;;;;;;4996266;28;20038;-61
2021/05/14 09:53:07;;;;;;;25.38;11.35;;;8.60;94.90;;;;;;5000749;28;20026;-63
2021/05/14 09:55:35;;;;;;;27.35;11.93;;;8.60;94.70;;;;;;4998818;28;20131;-63
2021/05/14 09:58:07;;;;;;;21.40;12.25;;;8.60;94.90;;;;;;5003845;28;20113;-63
2021/05/14 10:00:33;;;;;;;18.95;11.52;;;8.60;95.00;;;;;;5004850;28;20129;-63
2021/05/14 10:03:00;;;;;;;23.23;12.52;;;8.60;95.40;;;;;;5002010;28;20258;-63
2021/05/14 10:05:27;;;;;;;20.55;11.82;;;8.60;95.60;;;;;;5010975;28;20026;-62
2021/05/14 10:07:53;;;;;;;28.20;13.35;;;8.60;95.50;;;;;;5004209;28;20729;-63
2021/05/14 10:10:20;;;;;;;22.13;12.93;;;8.60;95.70;;;;;;5013042;28;20045;-63
2021/05/14 10:12:48;;;;;;;27.88;13.63;;;8.70;95.90;;;;;;4999395;28;20096;-65
2021/05/14 10:15:15;;;;;;;23.48;12.65;;;8.70;95.90;;;;;;5001849;28;20492;-64
2021/05/14 10:17:48;;;;;;;28.98;12.75;;;8.70;95.90;;;;;;4996814;28;20054;-65
2021/05/14 10:20:18;;;;;;;23.15;13.38;;;8.70;96.20;;;;;;5013984;28;20037;-65
2021/05/14 10:22:45;;;;;;;26.80;14.57;;;8.80;96.20;;;;;;4997765;28;20041;-66
2021/05/14 10:25:14;;;;;;;26.42;14.30;;;8.80;96.30;;;;;;5004618;28;20079;-65
2021/05/14 10:27:44;;;;;;;22.58;12.98;;;8.80;96.20;;;;;;5003971;28;20604;-65
2021/05/14 10:30:12;;;;;;;22.35;13.18;;;8.70;96.10;;;;;;4992675;28;20042;-63
2021/05/14 10:32:43;;;;;;;19.95;11.48;;;8.80;96.30;;;;;;4988200;28;20033;-63
2021/05/14 10:35:13;;;;;;;20.45;12.88;;;8.80;96.00;;;;;;5006830;28;20061;-64
2021/05/14 10:38:00;;;;;;;21.50;12.40;;;8.80;96.10;;;;;;4999238;28;20072;-63
2021/05/14 10:40:34;;;;;;;28.05;13.82;;;8.80;96.10;;;;;;4996702;28;20049;-65
2021/05/14 10:43:05;;;;;;;26.67;14.27;;;8.90;96.20;;;;;;5001422;28;20069;-62
2021/05/14 10:45:46;;;;;;;26.48;13.73;;;9.00;96.40;;;;;;5010021;28;20022;-65
2021/05/14 10:48:17;;;;;;;26.52;14.02;;;9.00;96.40;;;;;;5010218;28;20037;-65
2021/05/14 10:51:00;;;;;;;25.63;13.60;;;9.00;96.40;;;;;;5005870;28;20112;-65
2021/05/14 10:53:46;;;;;;;20.15;12.43;;;9.00;96.40;;;;;;4994870;28;20080;-66
2021/05/14 10:56:12;;;;;;;24.80;12.43;;;8.90;96.10;;;;;;4994909;28;20041;-63
2021/05/14 10:59:10;;;;;;;25.35;13.77;;;8.90;96.10;;;;;;4999023;28;20026;-64
2021/05/14 11:01:40;;;;;;;24.58;13.75;;;8.90;96.20;;;;;;4993161;28;20042;-72
2021/05/14 11:04:14;;;;;;;25.25;15.07;;;8.90;96.30;;;;;;5004159;28;20026;-64
2021/05/14 11:06:45;;;;;;;26.92;14.35;;;9.00;96.50;;;;;;5003387;28;20113;-64
2021/05/14 11:09:13;;;;;;;29.63;15.07;;;9.10;96.50;;;;;;5005436;28;20069;-65
2021/05/14 11:11:57;;;;;;;29.88;15.18;;;9.10;96.40;;;;;;5001907;28;20490;-64
2021/05/14 11:14:23;;;;;;;26.10;14.98;;;9.10;96.20;;;;;;4999425;28;20056;-65
2021/05/14 11:16:55;;;;;;;23.13;15.10;;;9.10;96.20;;;;;;5004428;28;20048;-63
2021/05/14 11:19:29;;;;;;;31.02;16.35;;;9.00;96.00;;;;;;5013683;28;20421;-66
2021/05/14 11:22:09;;;;;;;28.80;14.88;;;9.10;96.00;;;;;;5002149;28;20033;-64
2021/05/14 11:24:38;;;;;;;28.10;16.35;;;9.00;95.90;;;;;;5010489;28;20264;-63
2021/05/14 11:27:09;;;;;;;27.30;15.50;;;9.00;95.90;;;;;;4998632;28;20103;-63
2021/05/14 11:29:36;;;;;;;;;;;9.00;96.00;;;;;;5015313;28;20014;-64
2021/05/14 11:32:21;;;;;;;30.50;16.40;;;9.10;96.40;;;;;;4999055;28;20023;-64
2021/05/14 11:34:57;;;;;;;25.90;16.92;;;9.00;96.40;;;;;;5005674;28;20033;-64
2021/05/14 11:37:54;;;;;;;31.67;17.63;;;9.00;96.40;;;;;;4994184;28;20036;-65
2021/05/14 11:40:27;;;;;;;28.40;17.38;;;9.10;96.50;;;;;;5007923;28;20026;-65
2021/05/14 11:43:00;;;;;;;29.48;15.70;;;9.10;96.50;;;;;;4991414;28;20494;-66
2021/05/14 11:45:28;;;;;;;29.67;16.20;;;9.00;96.50;;;;;;4995632;28;20030;-63
2021/05/14 11:47:59;;;;;;;26.90;18.00;;;9.00;96.50;;;;;;5003920;28;20095;-67
2021/05/14 11:50:33;;;;;;;29.80;17.65;;;9.10;96.70;;;;;;5018682;28;20037;-68
2021/05/14 11:53:01;;;;;;;36.47;17.50;;;9.10;96.60;;;;;;4996274;28;20497;-63
2021/05/14 11:55:27;;;;;;;28.63;16.42;;;9.10;96.70;;;;;;4999965;28;20405;-65
2021/05/14 11:57:55;;;;;;;26.45;16.75;;;9.10;96.60;;;;;;4999669;28;20030;-63
2021/05/14 12:00:35;;;;;;;26.48;16.40;;;9.10;96.40;;;;;;4996457;28;20026;-65
2021/05/14 12:03:06;;;;;;;24.95;13.77;;;9.20;96.40;;;;;;4978657;28;20057;-67
2021/05/14 12:05:33;;;;;;;20.23;13.68;;;9.20;96.00;;;;;;4998587;28;20022;-68
2021/05/14 12:08:20;;;;;;;26.35;13.68;;;9.10;96.00;;;;;;4992702;28;20045;-66
2021/05/14 12:10:51;;;;;;;24.92;14.27;;;9.20;96.10;;;;;;4998500;28;20030;-67
2021/05/14 12:13:19;;;;;;;26.13;13.02;;;9.30;96.20;;;;;;4994363;28;20038;-69
2021/05/14 12:15:45;;;;;;;24.05;14.18;;;9.20;96.00;;;;;;4992504;28;20042;-67
2021/05/14 12:18:11;;;;;;;23.33;13.60;;;9.30;96.20;;;;;;4994393;28;20113;-66
2021/05/14 12:20:42;;;;;;;28.23;14.10;;;9.30;96.10;;;;;;4994723;28;20036;-65
2021/05/14 12:23:13;;;;;;;22.35;11.57;;;9.20;96.00;;;;;;4991988;28;20030;-64
2021/05/14 12:25:48;;;;;;;26.15;12.93;;;9.30;96.00;;;;;;4994539;28;20040;-66
2021/05/14 12:28:32;;;;;;;24.50;12.45;;;9.30;96.10;;;;;;4990990;28;20018;-63
2021/05/14 12:31:06;;;;;;;28.13;12.55;;;9.30;96.10;;;;;;4997441;28;20113;-66
2021/05/14 12:33:33;;;;;;;22.10;12.93;;;9.30;96.10;;;;;;4994373;28;20030;-66
2021/05/14 12:36:00;;;;;;;23.80;13.98;;;9.40;96.20;;;;;;4996094;28;20247;-63
2021/05/14 12:38:45;;;;;;;24.00;13.30;;;9.40;96.20;;;;;;4987739;28;20517;-63
2021/05/14 12:41:24;;;;;;;20.65;11.63;;;9.40;96.30;;;;;;4994757;28;20117;-63
2021/05/14 12:44:16;;;;;;;20.15;12.13;;;9.50;96.10;;;;;;4991648;28;20025;-63
2021/05/14 12:47:05;;;;;;;23.27;12.63;;;9.50;96.30;;;;;;4995079;28;20037;-62
2021/05/14 12:49:49;;;;;;;26.85;12.52;;;9.50;96.00;;;;;;4995992;28;20605;-63
2021/05/14 12:52:28;;;;;;;18.83;10.85;;;9.60;96.10;;;;;;4993634;28;20049;-61